ジュネーヴ の空港の天気 - METARとTAF

ジュネーヴ・コアントラン国際空港 ( LSGG / GVA ) - スイス ジュネーヴ
飛行場実況気象(Metar)
観測時間02/23 15:20 CET (02/23 14:20 UTC)
風向・風速北東 6m/s
視程7000m
天気現象
全天の4割程度の雲 雲底高度 640m
全天の8割程度の雲 雲底高度 700m
気温0℃
湿度69%
気圧1009hPa
METARLSGG 231420Z 04011KT 010V070 7000 SCT021 BKN023 00/M05 Q1009 NOSIG
過去の天気等 Google飛行場航空写真 Wunderground天気予報

過去48時間のMETAR

飛行場予報(TAF)
発表時間: 2/23 12:25 CET (2/23 11:25 UTC)
予報対象時間: 23日13時 CET ~ 24日19時 CET
風向・風速北北東 7m/s
視程8,000m
全天を覆う雲 雲底高度 760m
TAF LSGG 231125Z 2312/2418 03013KT 8000 OVC025 TX02/2315Z TNM02/2406Z TX03/2415Z